sensor_id;sensor_type;location;lat;lon;timestamp;P1;durP1;ratioP1;P2;durP2;ratioP2
31004;SDS011;17676;52.254;4.490;2023-03-24T00:02:07;14.27;;;4.88;;
31004;SDS011;17676;52.254;4.490;2023-03-24T00:04:33;7.90;;;3.95;;
31004;SDS011;17676;52.254;4.490;2023-03-24T00:07:00;9.52;;;5.00;;
31004;SDS011;17676;52.254;4.490;2023-03-24T00:09:27;8.23;;;6.10;;
31004;SDS011;17676;52.254;4.490;2023-03-24T00:11:54;11.55;;;6.28;;
31004;SDS011;17676;52.254;4.490;2023-03-24T00:14:20;7.28;;;6.00;;
31004;SDS011;17676;52.254;4.490;2023-03-24T00:16:46;9.40;;;6.57;;
31004;SDS011;17676;52.254;4.490;2023-03-24T00:19:11;7.57;;;6.18;;
31004;SDS011;17676;52.254;4.490;2023-03-24T00:21:38;8.45;;;6.70;;
31004;SDS011;17676;52.254;4.490;2023-03-24T00:24:05;9.43;;;6.97;;
31004;SDS011;17676;52.254;4.490;2023-03-24T00:26:35;9.80;;;5.95;;
31004;SDS011;17676;52.254;4.490;2023-03-24T00:29:02;7.95;;;6.50;;
31004;SDS011;17676;52.254;4.490;2023-03-24T00:31:29;8.85;;;6.30;;
31004;SDS011;17676;52.254;4.490;2023-03-24T00:33:55;8.63;;;6.45;;
31004;SDS011;17676;52.254;4.490;2023-03-24T00:36:23;9.32;;;6.10;;
31004;SDS011;17676;52.254;4.490;2023-03-24T00:38:51;10.40;;;7.22;;
31004;SDS011;17676;52.254;4.490;2023-03-24T00:41:17;7.32;;;5.38;;
31004;SDS011;17676;52.254;4.490;2023-03-24T00:43:44;9.40;;;6.30;;
31004;SDS011;17676;52.254;4.490;2023-03-24T00:46:12;10.98;;;6.55;;
31004;SDS011;17676;52.254;4.490;2023-03-24T00:48:53;10.23;;;6.35;;
31004;SDS011;17676;52.254;4.490;2023-03-24T00:51:22;7.20;;;4.60;;
31004;SDS011;17676;52.254;4.490;2023-03-24T00:53:48;6.95;;;4.95;;
31004;SDS011;17676;52.254;4.490;2023-03-24T00:56:14;11.80;;;5.05;;
31004;SDS011;17676;52.254;4.490;2023-03-24T00:58:40;8.38;;;4.68;;
31004;SDS011;17676;52.254;4.490;2023-03-24T01:01:06;4.47;;;3.88;;
31004;SDS011;17676;52.254;4.490;2023-03-24T01:03:31;4.75;;;3.30;;
31004;SDS011;17676;52.254;4.490;2023-03-24T01:06:01;5.43;;;3.75;;
31004;SDS011;17676;52.254;4.490;2023-03-24T01:08:30;6.63;;;3.45;;
31004;SDS011;17676;52.254;4.490;2023-03-24T01:10:56;5.82;;;3.40;;
31004;SDS011;17676;52.254;4.490;2023-03-24T01:13:22;4.63;;;2.33;;
31004;SDS011;17676;52.254;4.490;2023-03-24T01:15:50;3.20;;;1.98;;
31004;SDS011;17676;52.254;4.490;2023-03-24T01:18:16;9.18;;;3.20;;
31004;SDS011;17676;52.254;4.490;2023-03-24T01:20:43;7.55;;;3.42;;
31004;SDS011;17676;52.254;4.490;2023-03-24T01:23:10;7.30;;;3.17;;
31004;SDS011;17676;52.254;4.490;2023-03-24T01:25:39;5.80;;;2.78;;
31004;SDS011;17676;52.254;4.490;2023-03-24T01:28:06;5.75;;;2.88;;
31004;SDS011;17676;52.254;4.490;2023-03-24T01:30:32;6.95;;;3.88;;
31004;SDS011;17676;52.254;4.490;2023-03-24T01:32:58;10.90;;;4.00;;
31004;SDS011;17676;52.254;4.490;2023-03-24T01:35:24;5.32;;;3.40;;
31004;SDS011;17676;52.254;4.490;2023-03-24T01:37:51;8.52;;;3.30;;
31004;SDS011;17676;52.254;4.490;2023-03-24T01:40:18;11.55;;;3.65;;
31004;SDS011;17676;52.254;4.490;2023-03-24T01:42:46;14.73;;;4.38;;
31004;SDS011;17676;52.254;4.490;2023-03-24T01:48:34;17.42;;;2.90;;
31004;SDS011;17676;52.254;4.490;2023-03-24T01:51:08;22.77;;;3.22;;
31004;SDS011;17676;52.254;4.490;2023-03-24T01:53:45;11.15;;;1.95;;
31004;SDS011;17676;52.254;4.490;2023-03-24T01:56:15;20.20;;;2.78;;
31004;SDS011;17676;52.254;4.490;2023-03-24T01:58:42;19.65;;;2.88;;
31004;SDS011;17676;52.254;4.490;2023-03-24T02:01:12;25.00;;;2.78;;
31004;SDS011;17676;52.254;4.490;2023-03-24T02:03:48;18.08;;;2.03;;
31004;SDS011;17676;52.254;4.490;2023-03-24T02:06:13;15.98;;;1.73;;
31004;SDS011;17676;52.254;4.490;2023-03-24T02:08:57;23.92;;;2.42;;
31004;SDS011;17676;52.254;4.490;2023-03-24T02:11:26;22.00;;;1.80;;
31004;SDS011;17676;52.254;4.490;2023-03-24T02:13:54;12.30;;;1.33;;
31004;SDS011;17676;52.254;4.490;2023-03-24T02:30:32;13.95;;;1.85;;
31004;SDS011;17676;52.254;4.490;2023-03-24T02:47:14;18.10;;;1.10;;
31004;SDS011;17676;52.254;4.490;2023-03-24T02:49:55;16.58;;;1.20;;
31004;SDS011;17676;52.254;4.490;2023-03-24T02:55:07;16.55;;;1.45;;
31004;SDS011;17676;52.254;4.490;2023-03-24T03:00:40;11.45;;;1.20;;
31004;SDS011;17676;52.254;4.490;2023-03-24T03:03:27;15.57;;;1.23;;
31004;SDS011;17676;52.254;4.490;2023-03-24T03:06:04;19.05;;;2.15;;
31004;SDS011;17676;52.254;4.490;2023-03-24T03:08:37;20.02;;;1.73;;
31004;SDS011;17676;52.254;4.490;2023-03-24T03:11:06;26.88;;;1.63;;
31004;SDS011;17676;52.254;4.490;2023-03-24T03:13:37;18.05;;;1.65;;
31004;SDS011;17676;52.254;4.490;2023-03-24T03:16:08;25.42;;;2.83;;
31004;SDS011;17676;52.254;4.490;2023-03-24T03:18:39;17.17;;;2.17;;
31004;SDS011;17676;52.254;4.490;2023-03-24T03:21:11;22.73;;;1.52;;
31004;SDS011;17676;52.254;4.490;2023-03-24T03:23:46;21.10;;;1.95;;
31004;SDS011;17676;52.254;4.490;2023-03-24T03:26:16;28.25;;;2.50;;
31004;SDS011;17676;52.254;4.490;2023-03-24T03:28:48;18.80;;;1.70;;
31004;SDS011;17676;52.254;4.490;2023-03-24T03:31:26;22.42;;;2.13;;
31004;SDS011;17676;52.254;4.490;2023-03-24T03:39:18;21.13;;;3.05;;
31004;SDS011;17676;52.254;4.490;2023-03-24T03:41:53;18.70;;;1.58;;
31004;SDS011;17676;52.254;4.490;2023-03-24T03:44:22;23.45;;;1.85;;
31004;SDS011;17676;52.254;4.490;2023-03-24T03:46:48;23.27;;;1.90;;
31004;SDS011;17676;52.254;4.490;2023-03-24T03:49:16;19.63;;;2.20;;
31004;SDS011;17676;52.254;4.490;2023-03-24T03:51:42;25.35;;;2.65;;
31004;SDS011;17676;52.254;4.490;2023-03-24T03:54:09;19.17;;;1.55;;
31004;SDS011;17676;52.254;4.490;2023-03-24T03:56:37;25.83;;;2.00;;
31004;SDS011;17676;52.254;4.490;2023-03-24T03:59:04;19.50;;;2.10;;
31004;SDS011;17676;52.254;4.490;2023-03-24T04:01:31;22.98;;;2.10;;
31004;SDS011;17676;52.254;4.490;2023-03-24T04:15:53;28.13;;;2.55;;
31004;SDS011;17676;52.254;4.490;2023-03-24T04:21:05;25.23;;;2.10;;
31004;SDS011;17676;52.254;4.490;2023-03-24T04:29:19;23.92;;;2.95;;
31004;SDS011;17676;52.254;4.490;2023-03-24T04:31:59;39.60;;;3.22;;
31004;SDS011;17676;52.254;4.490;2023-03-24T04:34:31;18.70;;;1.83;;
31004;SDS011;17676;52.254;4.490;2023-03-24T04:37:04;17.77;;;1.92;;
31004;SDS011;17676;52.254;4.490;2023-03-24T04:39:36;30.75;;;2.60;;
31004;SDS011;17676;52.254;4.490;2023-03-24T04:42:06;39.90;;;4.15;;
31004;SDS011;17676;52.254;4.490;2023-03-24T04:44:36;26.17;;;2.92;;
31004;SDS011;17676;52.254;4.490;2023-03-24T04:47:05;30.10;;;2.22;;
31004;SDS011;17676;52.254;4.490;2023-03-24T04:49:36;33.17;;;3.50;;
31004;SDS011;17676;52.254;4.490;2023-03-24T04:52:03;25.10;;;2.63;;
31004;SDS011;17676;52.254;4.490;2023-03-24T04:54:33;23.83;;;2.60;;
31004;SDS011;17676;52.254;4.490;2023-03-24T04:56:59;28.67;;;2.85;;
31004;SDS011;17676;52.254;4.490;2023-03-24T04:59:26;30.08;;;2.60;;
31004;SDS011;17676;52.254;4.490;2023-03-24T05:01:58;37.72;;;3.80;;
31004;SDS011;17676;52.254;4.490;2023-03-24T05:04:27;34.75;;;3.42;;
31004;SDS011;17676;52.254;4.490;2023-03-24T05:06:54;33.60;;;3.47;;
31004;SDS011;17676;52.254;4.490;2023-03-24T05:09:20;33.60;;;3.58;;
31004;SDS011;17676;52.254;4.490;2023-03-24T05:11:49;30.80;;;3.60;;
31004;SDS011;17676;52.254;4.490;2023-03-24T05:14:15;34.38;;;3.67;;
31004;SDS011;17676;52.254;4.490;2023-03-24T05:16:41;43.22;;;3.90;;
31004;SDS011;17676;52.254;4.490;2023-03-24T05:19:07;39.20;;;4.50;;
31004;SDS011;17676;52.254;4.490;2023-03-24T05:21:33;53.90;;;5.43;;
31004;SDS011;17676;52.254;4.490;2023-03-24T05:23:59;43.97;;;5.82;;
31004;SDS011;17676;52.254;4.490;2023-03-24T05:26:24;42.58;;;4.80;;
31004;SDS011;17676;52.254;4.490;2023-03-24T05:28:54;30.42;;;4.45;;
31004;SDS011;17676;52.254;4.490;2023-03-24T05:31:20;41.40;;;5.18;;
31004;SDS011;17676;52.254;4.490;2023-03-24T05:33:45;41.78;;;4.75;;
31004;SDS011;17676;52.254;4.490;2023-03-24T05:36:10;42.70;;;4.43;;
31004;SDS011;17676;52.254;4.490;2023-03-24T05:38:36;32.63;;;3.17;;
31004;SDS011;17676;52.254;4.490;2023-03-24T05:41:02;41.03;;;4.40;;
31004;SDS011;17676;52.254;4.490;2023-03-24T05:43:27;39.70;;;3.47;;
31004;SDS011;17676;52.254;4.490;2023-03-24T05:45:53;41.20;;;4.57;;
31004;SDS011;17676;52.254;4.490;2023-03-24T05:48:20;44.08;;;5.03;;
31004;SDS011;17676;52.254;4.490;2023-03-24T05:50:45;40.97;;;4.35;;
31004;SDS011;17676;52.254;4.490;2023-03-24T05:53:11;31.92;;;3.47;;
31004;SDS011;17676;52.254;4.490;2023-03-24T05:55:36;37.88;;;4.38;;
31004;SDS011;17676;52.254;4.490;2023-03-24T05:58:04;46.80;;;4.68;;
31004;SDS011;17676;52.254;4.490;2023-03-24T06:00:30;24.13;;;2.97;;
31004;SDS011;17676;52.254;4.490;2023-03-24T06:02:57;44.10;;;4.95;;
31004;SDS011;17676;52.254;4.490;2023-03-24T06:05:23;42.33;;;3.78;;
31004;SDS011;17676;52.254;4.490;2023-03-24T06:07:49;32.35;;;4.28;;
31004;SDS011;17676;52.254;4.490;2023-03-24T06:10:15;40.53;;;4.07;;
31004;SDS011;17676;52.254;4.490;2023-03-24T06:12:45;38.00;;;4.68;;
31004;SDS011;17676;52.254;4.490;2023-03-24T06:15:11;32.63;;;3.90;;
31004;SDS011;17676;52.254;4.490;2023-03-24T06:17:41;49.60;;;4.47;;
31004;SDS011;17676;52.254;4.490;2023-03-24T06:20:08;38.35;;;5.15;;
31004;SDS011;17676;52.254;4.490;2023-03-24T06:22:39;45.65;;;4.32;;
31004;SDS011;17676;52.254;4.490;2023-03-24T06:25:05;38.13;;;4.10;;
31004;SDS011;17676;52.254;4.490;2023-03-24T06:27:33;34.33;;;3.90;;
31004;SDS011;17676;52.254;4.490;2023-03-24T06:30:01;42.25;;;4.65;;
31004;SDS011;17676;52.254;4.490;2023-03-24T06:32:27;47.05;;;4.57;;
31004;SDS011;17676;52.254;4.490;2023-03-24T06:34:52;39.92;;;4.70;;
31004;SDS011;17676;52.254;4.490;2023-03-24T06:37:20;41.83;;;4.78;;
31004;SDS011;17676;52.254;4.490;2023-03-24T06:39:46;27.85;;;4.05;;
31004;SDS011;17676;52.254;4.490;2023-03-24T06:42:11;42.40;;;5.32;;
31004;SDS011;17676;52.254;4.490;2023-03-24T06:44:37;36.20;;;3.03;;
31004;SDS011;17676;52.254;4.490;2023-03-24T06:47:03;35.45;;;3.55;;
31004;SDS011;17676;52.254;4.490;2023-03-24T06:49:28;37.58;;;3.30;;
31004;SDS011;17676;52.254;4.490;2023-03-24T06:51:55;36.22;;;3.50;;
31004;SDS011;17676;52.254;4.490;2023-03-24T06:54:24;35.70;;;4.10;;
31004;SDS011;17676;52.254;4.490;2023-03-24T06:57:04;37.72;;;6.20;;
31004;SDS011;17676;52.254;4.490;2023-03-24T06:59:38;31.85;;;4.18;;
31004;SDS011;17676;52.254;4.490;2023-03-24T07:02:03;30.63;;;3.83;;
31004;SDS011;17676;52.254;4.490;2023-03-24T07:04:29;23.70;;;3.72;;
31004;SDS011;17676;52.254;4.490;2023-03-24T07:07:00;37.60;;;4.40;;
31004;SDS011;17676;52.254;4.490;2023-03-24T07:09:26;38.92;;;4.53;;
31004;SDS011;17676;52.254;4.490;2023-03-24T07:11:51;40.88;;;4.65;;
31004;SDS011;17676;52.254;4.490;2023-03-24T07:14:17;33.67;;;3.60;;
31004;SDS011;17676;52.254;4.490;2023-03-24T07:16:42;39.88;;;4.32;;
31004;SDS011;17676;52.254;4.490;2023-03-24T07:19:08;34.33;;;4.35;;
31004;SDS011;17676;52.254;4.490;2023-03-24T07:21:34;28.35;;;3.45;;
31004;SDS011;17676;52.254;4.490;2023-03-24T07:24:01;35.08;;;4.53;;
31004;SDS011;17676;52.254;4.490;2023-03-24T07:26:28;34.15;;;4.43;;
31004;SDS011;17676;52.254;4.490;2023-03-24T07:28:53;32.38;;;4.80;;
31004;SDS011;17676;52.254;4.490;2023-03-24T07:31:19;28.25;;;3.53;;
31004;SDS011;17676;52.254;4.490;2023-03-24T07:33:46;31.80;;;3.55;;
31004;SDS011;17676;52.254;4.490;2023-03-24T07:36:12;29.15;;;3.55;;
31004;SDS011;17676;52.254;4.490;2023-03-24T07:38:38;34.95;;;4.85;;
31004;SDS011;17676;52.254;4.490;2023-03-24T07:41:13;29.02;;;3.63;;
31004;SDS011;17676;52.254;4.490;2023-03-24T07:43:40;44.33;;;4.32;;
31004;SDS011;17676;52.254;4.490;2023-03-24T07:46:06;35.03;;;4.90;;
31004;SDS011;17676;52.254;4.490;2023-03-24T07:48:35;30.48;;;3.65;;
31004;SDS011;17676;52.254;4.490;2023-03-24T07:51:00;29.20;;;2.95;;
31004;SDS011;17676;52.254;4.490;2023-03-24T07:53:26;29.17;;;3.90;;
31004;SDS011;17676;52.254;4.490;2023-03-24T07:55:51;29.38;;;3.15;;
31004;SDS011;17676;52.254;4.490;2023-03-24T07:58:24;23.05;;;3.08;;
31004;SDS011;17676;52.254;4.490;2023-03-24T08:00:52;27.67;;;3.53;;
31004;SDS011;17676;52.254;4.490;2023-03-24T08:03:19;25.10;;;2.80;;
31004;SDS011;17676;52.254;4.490;2023-03-24T08:05:49;40.50;;;3.42;;
31004;SDS011;17676;52.254;4.490;2023-03-24T08:08:15;37.63;;;4.38;;
31004;SDS011;17676;52.254;4.490;2023-03-24T08:10:40;20.08;;;2.47;;
31004;SDS011;17676;52.254;4.490;2023-03-24T08:13:20;28.30;;;2.97;;
31004;SDS011;17676;52.254;4.490;2023-03-24T08:15:49;22.77;;;2.90;;
31004;SDS011;17676;52.254;4.490;2023-03-24T08:18:27;14.23;;;1.67;;
31004;SDS011;17676;52.254;4.490;2023-03-24T08:20:57;25.85;;;3.50;;
31004;SDS011;17676;52.254;4.490;2023-03-24T08:23:27;26.30;;;3.10;;
31004;SDS011;17676;52.254;4.490;2023-03-24T08:25:52;19.90;;;2.95;;
31004;SDS011;17676;52.254;4.490;2023-03-24T08:28:20;22.73;;;2.65;;
31004;SDS011;17676;52.254;4.490;2023-03-24T08:30:48;21.50;;;2.55;;
31004;SDS011;17676;52.254;4.490;2023-03-24T08:33:26;23.13;;;2.97;;
31004;SDS011;17676;52.254;4.490;2023-03-24T08:35:52;18.40;;;2.13;;
31004;SDS011;17676;52.254;4.490;2023-03-24T08:38:22;14.98;;;1.65;;
31004;SDS011;17676;52.254;4.490;2023-03-24T08:40:54;18.20;;;2.33;;
31004;SDS011;17676;52.254;4.490;2023-03-24T08:43:23;20.63;;;3.00;;
31004;SDS011;17676;52.254;4.490;2023-03-24T08:45:58;20.23;;;3.05;;
31004;SDS011;17676;52.254;4.490;2023-03-24T08:48:30;14.40;;;1.90;;
31004;SDS011;17676;52.254;4.490;2023-03-24T08:50:59;18.25;;;2.65;;
31004;SDS011;17676;52.254;4.490;2023-03-24T08:53:33;18.83;;;1.88;;
31004;SDS011;17676;52.254;4.490;2023-03-24T08:56:03;13.98;;;1.85;;
31004;SDS011;17676;52.254;4.490;2023-03-24T08:58:28;18.48;;;1.90;;
31004;SDS011;17676;52.254;4.490;2023-03-24T09:00:54;12.65;;;1.30;;
31004;SDS011;17676;52.254;4.490;2023-03-24T09:03:20;18.15;;;1.77;;
31004;SDS011;17676;52.254;4.490;2023-03-24T09:05:50;13.38;;;2.05;;
31004;SDS011;17676;52.254;4.490;2023-03-24T09:08:18;17.17;;;1.92;;
31004;SDS011;17676;52.254;4.490;2023-03-24T09:10:44;17.08;;;1.88;;
31004;SDS011;17676;52.254;4.490;2023-03-24T09:13:14;14.95;;;1.90;;
31004;SDS011;17676;52.254;4.490;2023-03-24T09:15:44;12.13;;;1.30;;
31004;SDS011;17676;52.254;4.490;2023-03-24T09:18:14;17.77;;;2.08;;
31004;SDS011;17676;52.254;4.490;2023-03-24T09:20:46;14.15;;;2.10;;
31004;SDS011;17676;52.254;4.490;2023-03-24T09:23:15;15.00;;;1.63;;
31004;SDS011;17676;52.254;4.490;2023-03-24T09:25:59;14.27;;;1.27;;
31004;SDS011;17676;52.254;4.490;2023-03-24T09:28:27;12.73;;;1.50;;
31004;SDS011;17676;52.254;4.490;2023-03-24T09:30:57;16.05;;;2.60;;
31004;SDS011;17676;52.254;4.490;2023-03-24T09:33:27;15.30;;;1.90;;
31004;SDS011;17676;52.254;4.490;2023-03-24T09:35:54;14.27;;;1.98;;
31004;SDS011;17676;52.254;4.490;2023-03-24T09:38:21;15.15;;;2.70;;
31004;SDS011;17676;52.254;4.490;2023-03-24T09:40:47;15.85;;;2.60;;
31004;SDS011;17676;52.254;4.490;2023-03-24T09:43:26;21.42;;;2.45;;
31004;SDS011;17676;52.254;4.490;2023-03-24T09:46:20;12.85;;;2.08;;
31004;SDS011;17676;52.254;4.490;2023-03-24T09:48:52;17.90;;;2.30;;
31004;SDS011;17676;52.254;4.490;2023-03-24T09:51:24;14.10;;;2.17;;
31004;SDS011;17676;52.254;4.490;2023-03-24T09:56:36;22.10;;;2.85;;
31004;SDS011;17676;52.254;4.490;2023-03-24T09:59:05;16.23;;;1.85;;
31004;SDS011;17676;52.254;4.490;2023-03-24T10:01:43;19.17;;;2.58;;
31004;SDS011;17676;52.254;4.490;2023-03-24T10:04:12;15.43;;;2.08;;
31004;SDS011;17676;52.254;4.490;2023-03-24T10:06:40;16.98;;;1.77;;
31004;SDS011;17676;52.254;4.490;2023-03-24T10:09:27;15.38;;;1.70;;
31004;SDS011;17676;52.254;4.490;2023-03-24T10:20:41;17.35;;;2.67;;
31004;SDS011;17676;52.254;4.490;2023-03-24T10:26:16;17.08;;;2.22;;
31004;SDS011;17676;52.254;4.490;2023-03-24T10:28:55;14.98;;;1.65;;
31004;SDS011;17676;52.254;4.490;2023-03-24T10:31:46;18.95;;;1.77;;
31004;SDS011;17676;52.254;4.490;2023-03-24T10:34:15;22.13;;;2.38;;
31004;SDS011;17676;52.254;4.490;2023-03-24T10:36:41;22.58;;;2.42;;
31004;SDS011;17676;52.254;4.490;2023-03-24T10:39:12;18.25;;;2.05;;
31004;SDS011;17676;52.254;4.490;2023-03-24T10:41:39;13.73;;;1.60;;
31004;SDS011;17676;52.254;4.490;2023-03-24T10:44:06;18.92;;;2.75;;
31004;SDS011;17676;52.254;4.490;2023-03-24T10:46:36;16.13;;;2.03;;
31004;SDS011;17676;52.254;4.490;2023-03-24T10:51:35;20.08;;;3.03;;
31004;SDS011;17676;52.254;4.490;2023-03-24T10:54:11;19.38;;;3.03;;
31004;SDS011;17676;52.254;4.490;2023-03-24T10:56:38;9.60;;;1.13;;
31004;SDS011;17676;52.254;4.490;2023-03-24T11:01:56;17.67;;;2.55;;
31004;SDS011;17676;52.254;4.490;2023-03-24T11:04:29;19.27;;;2.25;;
31004;SDS011;17676;52.254;4.490;2023-03-24T11:09:45;18.77;;;2.60;;
31004;SDS011;17676;52.254;4.490;2023-03-24T11:12:23;14.50;;;1.38;;
31004;SDS011;17676;52.254;4.490;2023-03-24T11:17:43;16.85;;;1.83;;
31004;SDS011;17676;52.254;4.490;2023-03-24T11:20:43;14.80;;;1.30;;
31004;SDS011;17676;52.254;4.490;2023-03-24T11:23:19;14.75;;;2.05;;
31004;SDS011;17676;52.254;4.490;2023-03-24T11:25:52;10.30;;;0.90;;
31004;SDS011;17676;52.254;4.490;2023-03-24T11:28:27;21.52;;;1.55;;
31004;SDS011;17676;52.254;4.490;2023-03-24T11:30:59;14.18;;;1.52;;
31004;SDS011;17676;52.254;4.490;2023-03-24T11:33:32;12.50;;;1.38;;
31004;SDS011;17676;52.254;4.490;2023-03-24T11:36:00;13.80;;;1.10;;
31004;SDS011;17676;52.254;4.490;2023-03-24T11:38:47;14.32;;;1.73;;
31004;SDS011;17676;52.254;4.490;2023-03-24T11:41:23;14.63;;;2.13;;
31004;SDS011;17676;52.254;4.490;2023-03-24T11:43:49;14.88;;;1.13;;
31004;SDS011;17676;52.254;4.490;2023-03-24T11:46:17;11.07;;;1.27;;
31004;SDS011;17676;52.254;4.490;2023-03-24T11:51:32;14.15;;;1.42;;
31004;SDS011;17676;52.254;4.490;2023-03-24T11:54:01;9.43;;;0.82;;
31004;SDS011;17676;52.254;4.490;2023-03-24T11:56:37;13.52;;;1.25;;
31004;SDS011;17676;52.254;4.490;2023-03-24T12:01:58;14.45;;;1.08;;
31004;SDS011;17676;52.254;4.490;2023-03-24T12:07:28;19.70;;;1.85;;
31004;SDS011;17676;52.254;4.490;2023-03-24T12:23:59;13.52;;;1.55;;
31004;SDS011;17676;52.254;4.490;2023-03-24T12:26:41;11.77;;;0.90;;
31004;SDS011;17676;52.254;4.490;2023-03-24T12:32:02;13.18;;;1.67;;
31004;SDS011;17676;52.254;4.490;2023-03-24T12:37:18;20.73;;;1.88;;
31004;SDS011;17676;52.254;4.490;2023-03-24T12:42:41;20.23;;;1.77;;
31004;SDS011;17676;52.254;4.490;2023-03-24T12:45:22;19.40;;;2.40;;
31004;SDS011;17676;52.254;4.490;2023-03-24T12:55:50;12.15;;;1.40;;
31004;SDS011;17676;52.254;4.490;2023-03-24T12:58:31;12.20;;;1.90;;
31004;SDS011;17676;52.254;4.490;2023-03-24T13:04:07;19.83;;;2.25;;
31004;SDS011;17676;52.254;4.490;2023-03-24T13:06:57;31.33;;;2.97;;
31004;SDS011;17676;52.254;4.490;2023-03-24T13:09:45;16.63;;;1.52;;
31004;SDS011;17676;52.254;4.490;2023-03-24T13:15:16;17.80;;;2.20;;
31004;SDS011;17676;52.254;4.490;2023-03-24T13:18:02;20.85;;;2.10;;
31004;SDS011;17676;52.254;4.490;2023-03-24T13:23:35;24.40;;;1.75;;
31004;SDS011;17676;52.254;4.490;2023-03-24T13:26:09;22.15;;;2.72;;
31004;SDS011;17676;52.254;4.490;2023-03-24T13:28:56;16.15;;;1.58;;
31004;SDS011;17676;52.254;4.490;2023-03-24T13:31:27;23.83;;;1.75;;
31004;SDS011;17676;52.254;4.490;2023-03-24T13:34:00;14.65;;;1.30;;
31004;SDS011;17676;52.254;4.490;2023-03-24T13:38:55;24.65;;;2.70;;
31004;SDS011;17676;52.254;4.490;2023-03-24T13:41:24;21.42;;;2.30;;
31004;SDS011;17676;52.254;4.490;2023-03-24T13:43:58;13.10;;;1.40;;
31004;SDS011;17676;52.254;4.490;2023-03-24T13:46:25;17.52;;;2.00;;
31004;SDS011;17676;52.254;4.490;2023-03-24T13:48:52;19.70;;;2.03;;
31004;SDS011;17676;52.254;4.490;2023-03-24T13:51:29;27.10;;;2.15;;
31004;SDS011;17676;52.254;4.490;2023-03-24T13:56:53;16.40;;;1.92;;
31004;SDS011;17676;52.254;4.490;2023-03-24T14:00:25;24.17;;;2.47;;
31004;SDS011;17676;52.254;4.490;2023-03-24T14:09:58;22.40;;;2.13;;
31004;SDS011;17676;52.254;4.490;2023-03-24T14:12:28;20.10;;;1.70;;
31004;SDS011;17676;52.254;4.490;2023-03-24T14:15:14;19.77;;;1.48;;
31004;SDS011;17676;52.254;4.490;2023-03-24T14:17:42;18.70;;;1.98;;
31004;SDS011;17676;52.254;4.490;2023-03-24T14:22:39;20.23;;;2.00;;
31004;SDS011;17676;52.254;4.490;2023-03-24T14:27:44;24.27;;;2.05;;
31004;SDS011;17676;52.254;4.490;2023-03-24T14:32:45;20.77;;;2.15;;
31004;SDS011;17676;52.254;4.490;2023-03-24T14:38:04;20.17;;;1.65;;
31004;SDS011;17676;52.254;4.490;2023-03-24T14:40:47;23.10;;;1.75;;
31004;SDS011;17676;52.254;4.490;2023-03-24T14:48:30;18.30;;;2.33;;
31004;SDS011;17676;52.254;4.490;2023-03-24T14:54:24;27.77;;;3.15;;
31004;SDS011;17676;52.254;4.490;2023-03-24T14:56:51;16.33;;;2.20;;
31004;SDS011;17676;52.254;4.490;2023-03-24T15:02:20;21.75;;;2.90;;
31004;SDS011;17676;52.254;4.490;2023-03-24T15:11:00;22.25;;;2.53;;
31004;SDS011;17676;52.254;4.490;2023-03-24T15:16:07;17.92;;;2.00;;
31004;SDS011;17676;52.254;4.490;2023-03-24T15:26:47;18.83;;;2.33;;
31004;SDS011;17676;52.254;4.490;2023-03-24T15:29:16;15.82;;;2.15;;
31004;SDS011;17676;52.254;4.490;2023-03-24T15:31:42;18.33;;;1.70;;
31004;SDS011;17676;52.254;4.490;2023-03-24T15:34:27;19.15;;;2.33;;
31004;SDS011;17676;52.254;4.490;2023-03-24T15:36:58;16.67;;;1.88;;
31004;SDS011;17676;52.254;4.490;2023-03-24T15:39:36;22.02;;;2.13;;
31004;SDS011;17676;52.254;4.490;2023-03-24T15:42:03;16.98;;;1.77;;
31004;SDS011;17676;52.254;4.490;2023-03-24T15:44:30;17.23;;;1.75;;
31004;SDS011;17676;52.254;4.490;2023-03-24T15:47:00;24.17;;;2.15;;
31004;SDS011;17676;52.254;4.490;2023-03-24T15:49:33;21.00;;;1.48;;
31004;SDS011;17676;52.254;4.490;2023-03-24T15:52:22;17.35;;;2.03;;
31004;SDS011;17676;52.254;4.490;2023-03-24T15:54:46;13.85;;;1.40;;
31004;SDS011;17676;52.254;4.490;2023-03-24T15:57:18;15.40;;;1.50;;
31004;SDS011;17676;52.254;4.490;2023-03-24T16:02:42;16.67;;;1.65;;
31004;SDS011;17676;52.254;4.490;2023-03-24T16:05:25;19.98;;;1.83;;
31004;SDS011;17676;52.254;4.490;2023-03-24T16:10:25;24.73;;;2.50;;
31004;SDS011;17676;52.254;4.490;2023-03-24T16:12:51;19.95;;;1.58;;
31004;SDS011;17676;52.254;4.490;2023-03-24T16:15:17;14.13;;;1.27;;
31004;SDS011;17676;52.254;4.490;2023-03-24T16:17:43;26.48;;;2.50;;
31004;SDS011;17676;52.254;4.490;2023-03-24T16:20:16;20.30;;;1.98;;
31004;SDS011;17676;52.254;4.490;2023-03-24T16:22:44;16.15;;;2.50;;
31004;SDS011;17676;52.254;4.490;2023-03-24T16:25:11;15.82;;;1.77;;
31004;SDS011;17676;52.254;4.490;2023-03-24T16:27:36;14.52;;;1.85;;
31004;SDS011;17676;52.254;4.490;2023-03-24T16:30:05;19.35;;;1.55;;
31004;SDS011;17676;52.254;4.490;2023-03-24T16:32:42;21.42;;;1.92;;
31004;SDS011;17676;52.254;4.490;2023-03-24T16:35:07;16.40;;;1.40;;
31004;SDS011;17676;52.254;4.490;2023-03-24T16:37:33;22.73;;;2.10;;
31004;SDS011;17676;52.254;4.490;2023-03-24T16:39:59;16.33;;;1.10;;
31004;SDS011;17676;52.254;4.490;2023-03-24T16:42:24;19.83;;;1.88;;
31004;SDS011;17676;52.254;4.490;2023-03-24T16:44:50;21.33;;;1.88;;
31004;SDS011;17676;52.254;4.490;2023-03-24T16:47:15;18.73;;;2.03;;
31004;SDS011;17676;52.254;4.490;2023-03-24T16:49:41;15.25;;;1.45;;
31004;SDS011;17676;52.254;4.490;2023-03-24T16:52:09;21.33;;;1.67;;
31004;SDS011;17676;52.254;4.490;2023-03-24T16:54:36;16.02;;;1.33;;
31004;SDS011;17676;52.254;4.490;2023-03-24T16:57:02;19.50;;;1.52;;
31004;SDS011;17676;52.254;4.490;2023-03-24T16:59:27;12.88;;;1.00;;
31004;SDS011;17676;52.254;4.490;2023-03-24T17:01:53;13.90;;;2.40;;
31004;SDS011;17676;52.254;4.490;2023-03-24T17:04:20;12.93;;;1.10;;
31004;SDS011;17676;52.254;4.490;2023-03-24T17:06:48;9.60;;;0.88;;
31004;SDS011;17676;52.254;4.490;2023-03-24T17:09:17;12.32;;;1.40;;
31004;SDS011;17676;52.254;4.490;2023-03-24T17:11:43;21.33;;;1.35;;
31004;SDS011;17676;52.254;4.490;2023-03-24T17:14:12;12.70;;;1.00;;
31004;SDS011;17676;52.254;4.490;2023-03-24T17:16:40;11.10;;;1.10;;
31004;SDS011;17676;52.254;4.490;2023-03-24T17:19:10;16.63;;;1.35;;
31004;SDS011;17676;52.254;4.490;2023-03-24T17:21:37;14.40;;;1.25;;
31004;SDS011;17676;52.254;4.490;2023-03-24T17:24:06;16.58;;;1.38;;
31004;SDS011;17676;52.254;4.490;2023-03-24T17:26:34;10.95;;;1.35;;
31004;SDS011;17676;52.254;4.490;2023-03-24T17:29:01;16.42;;;1.10;;
31004;SDS011;17676;52.254;4.490;2023-03-24T17:31:27;9.30;;;0.70;;
31004;SDS011;17676;52.254;4.490;2023-03-24T17:33:52;13.48;;;1.42;;
31004;SDS011;17676;52.254;4.490;2023-03-24T17:36:18;18.05;;;1.20;;
31004;SDS011;17676;52.254;4.490;2023-03-24T17:38:43;15.35;;;1.38;;
31004;SDS011;17676;52.254;4.490;2023-03-24T17:41:11;11.20;;;0.98;;
31004;SDS011;17676;52.254;4.490;2023-03-24T17:43:37;13.10;;;1.58;;
31004;SDS011;17676;52.254;4.490;2023-03-24T17:46:08;12.18;;;1.73;;
31004;SDS011;17676;52.254;4.490;2023-03-24T17:48:33;19.13;;;1.20;;
31004;SDS011;17676;52.254;4.490;2023-03-24T17:50:58;19.30;;;1.27;;
31004;SDS011;17676;52.254;4.490;2023-03-24T17:53:24;13.32;;;1.10;;
31004;SDS011;17676;52.254;4.490;2023-03-24T17:55:51;14.05;;;1.00;;
31004;SDS011;17676;52.254;4.490;2023-03-24T17:58:17;18.02;;;1.40;;
31004;SDS011;17676;52.254;4.490;2023-03-24T18:00:44;15.18;;;1.00;;
31004;SDS011;17676;52.254;4.490;2023-03-24T18:03:09;13.85;;;1.42;;
31004;SDS011;17676;52.254;4.490;2023-03-24T18:05:35;11.50;;;1.42;;